sensor_id;sensor_type;location;lat;lon;timestamp;pressure;altitude;pressure_sealevel;temperature;humidity
35331;BME280;21441;52.190;20.910;2023-07-20T00:01:35;99372.63;;;18.40;70.45
35331;BME280;21441;52.190;20.910;2023-07-20T00:04:04;99376.25;;;18.45;70.37
35331;BME280;21441;52.190;20.910;2023-07-20T00:06:30;99368.91;;;18.41;70.37
35331;BME280;21441;52.190;20.910;2023-07-20T00:08:57;99369.69;;;18.41;69.75
35331;BME280;21441;52.190;20.910;2023-07-20T00:11:26;99371.94;;;18.44;69.04
35331;BME280;21441;52.190;20.910;2023-07-20T00:13:55;99367.94;;;18.47;69.17
35331;BME280;21441;52.190;20.910;2023-07-20T00:16:22;99371.66;;;18.46;68.67
35331;BME280;21441;52.190;20.910;2023-07-20T00:18:49;99362.41;;;18.42;68.90
35331;BME280;21441;52.190;20.910;2023-07-20T00:21:15;99364.31;;;18.41;68.21
35331;BME280;21441;52.190;20.910;2023-07-20T00:23:42;99366.44;;;18.39;68.99
35331;BME280;21441;52.190;20.910;2023-07-20T00:26:09;99359.63;;;18.37;68.62
35331;BME280;21441;52.190;20.910;2023-07-20T00:28:36;99365.28;;;18.35;69.39
35331;BME280;21441;52.190;20.910;2023-07-20T00:31:04;99372.06;;;18.38;69.42
35331;BME280;21441;52.190;20.910;2023-07-20T00:33:31;99372.47;;;18.29;69.85
35331;BME280;21441;52.190;20.910;2023-07-20T00:35:58;99378.34;;;18.26;70.51
35331;BME280;21441;52.190;20.910;2023-07-20T00:38:25;99370.00;;;18.28;71.71
35331;BME280;21441;52.190;20.910;2023-07-20T00:40:52;99370.00;;;18.28;71.08
35331;BME280;21441;52.190;20.910;2023-07-20T00:43:19;99372.38;;;18.24;71.43
35331;BME280;21441;52.190;20.910;2023-07-20T00:45:46;99365.84;;;18.20;71.68
35331;BME280;21441;52.190;20.910;2023-07-20T00:48:14;99370.16;;;18.21;71.78
35331;BME280;21441;52.190;20.910;2023-07-20T00:50:42;99368.94;;;18.29;71.25
35331;BME280;21441;52.190;20.910;2023-07-20T00:53:09;99375.66;;;18.26;70.75
35331;BME280;21441;52.190;20.910;2023-07-20T00:55:36;99362.06;;;18.21;71.39
35331;BME280;21441;52.190;20.910;2023-07-20T00:58:04;99365.50;;;18.17;71.56
35331;BME280;21441;52.190;20.910;2023-07-20T01:00:31;99355.91;;;18.09;71.48
35331;BME280;21441;52.190;20.910;2023-07-20T01:02:58;99360.09;;;18.17;71.34
35331;BME280;21441;52.190;20.910;2023-07-20T01:05:34;99368.13;;;18.28;71.02
35331;BME280;21441;52.190;20.910;2023-07-20T01:08:07;99362.66;;;18.23;71.29
35331;BME280;21441;52.190;20.910;2023-07-20T01:10:40;99367.69;;;18.20;71.59
35331;BME280;21441;52.190;20.910;2023-07-20T01:13:09;99365.50;;;18.17;72.00
35331;BME280;21441;52.190;20.910;2023-07-20T01:15:36;99374.34;;;18.29;71.04
35331;BME280;21441;52.190;20.910;2023-07-20T01:18:04;99376.22;;;18.28;71.05
35331;BME280;21441;52.190;20.910;2023-07-20T01:20:33;99364.19;;;18.19;71.81
35331;BME280;21441;52.190;20.910;2023-07-20T01:23:22;99356.25;;;18.12;72.27
35331;BME280;21441;52.190;20.910;2023-07-20T01:26:12;99348.50;;;18.16;71.96
35331;BME280;21441;52.190;20.910;2023-07-20T01:28:57;99358.75;;;18.02;72.49
35331;BME280;21441;52.190;20.910;2023-07-20T01:31:33;99362.75;;;18.00;73.05
35331;BME280;21441;52.190;20.910;2023-07-20T01:34:01;99369.94;;;17.94;73.66
35331;BME280;21441;52.190;20.910;2023-07-20T01:36:32;99373.38;;;17.89;73.75
35331;BME280;21441;52.190;20.910;2023-07-20T01:39:00;99372.03;;;17.80;74.48
35331;BME280;21441;52.190;20.910;2023-07-20T01:41:27;99369.41;;;17.68;75.16
35331;BME280;21441;52.190;20.910;2023-07-20T01:43:57;99371.88;;;17.70;75.62
35331;BME280;21441;52.190;20.910;2023-07-20T01:46:24;99373.13;;;17.67;75.84
35331;BME280;21441;52.190;20.910;2023-07-20T01:48:53;99374.06;;;17.73;75.68
35331;BME280;21441;52.190;20.910;2023-07-20T01:51:20;99383.69;;;17.69;76.43
35331;BME280;21441;52.190;20.910;2023-07-20T01:53:47;99372.91;;;17.69;76.91
35331;BME280;21441;52.190;20.910;2023-07-20T01:56:13;99387.69;;;17.66;77.68
35331;BME280;21441;52.190;20.910;2023-07-20T01:58:41;99383.22;;;17.72;77.98
35331;BME280;21441;52.190;20.910;2023-07-20T02:01:07;99388.22;;;17.80;78.46
35331;BME280;21441;52.190;20.910;2023-07-20T02:03:34;99380.41;;;17.79;78.90
35331;BME280;21441;52.190;20.910;2023-07-20T02:06:03;99367.28;;;17.70;78.94
35331;BME280;21441;52.190;20.910;2023-07-20T02:08:30;99382.03;;;17.80;79.28
35331;BME280;21441;52.190;20.910;2023-07-20T02:10:57;99391.31;;;17.84;79.19
35331;BME280;21441;52.190;20.910;2023-07-20T02:13:24;99374.31;;;17.83;79.02
35331;BME280;21441;52.190;20.910;2023-07-20T02:15:50;99371.78;;;17.93;78.55
35331;BME280;21441;52.190;20.910;2023-07-20T02:18:17;99369.22;;;17.99;78.22
35331;BME280;21441;52.190;20.910;2023-07-20T02:20:44;99370.16;;;17.92;80.13
35331;BME280;21441;52.190;20.910;2023-07-20T02:23:13;99375.91;;;17.96;78.71
35331;BME280;21441;52.190;20.910;2023-07-20T02:25:40;99376.72;;;17.97;78.69
35331;BME280;21441;52.190;20.910;2023-07-20T02:28:07;99376.72;;;17.97;79.65
35331;BME280;21441;52.190;20.910;2023-07-20T02:30:37;99381.53;;;17.94;80.10
35331;BME280;21441;52.190;20.910;2023-07-20T02:33:04;99381.88;;;17.98;80.59
35331;BME280;21441;52.190;20.910;2023-07-20T02:35:32;99374.13;;;18.02;81.87
35331;BME280;21441;52.190;20.910;2023-07-20T02:37:59;99363.63;;;17.77;83.98
35331;BME280;21441;52.190;20.910;2023-07-20T02:40:27;99368.00;;;17.66;86.26
35331;BME280;21441;52.190;20.910;2023-07-20T02:42:54;99359.09;;;17.65;86.30
35331;BME280;21441;52.190;20.910;2023-07-20T02:45:21;99361.44;;;17.62;86.33
35331;BME280;21441;52.190;20.910;2023-07-20T02:47:48;99368.72;;;17.61;86.75
35331;BME280;21441;52.190;20.910;2023-07-20T02:50:15;99376.09;;;17.54;87.34
35331;BME280;21441;52.190;20.910;2023-07-20T02:52:42;99365.13;;;17.44;88.31
35331;BME280;21441;52.190;20.910;2023-07-20T02:55:09;99383.19;;;17.43;88.92
35331;BME280;21441;52.190;20.910;2023-07-20T02:57:38;99378.47;;;17.50;88.52
35331;BME280;21441;52.190;20.910;2023-07-20T03:00:05;99364.63;;;17.59;87.92
35331;BME280;21441;52.190;20.910;2023-07-20T03:02:33;99369.19;;;17.58;88.00
35331;BME280;21441;52.190;20.910;2023-07-20T03:05:00;99368.13;;;17.59;87.12
35331;BME280;21441;52.190;20.910;2023-07-20T03:07:31;99379.50;;;17.61;87.68
35331;BME280;21441;52.190;20.910;2023-07-20T03:09:58;99378.56;;;17.56;87.95
35331;BME280;21441;52.190;20.910;2023-07-20T03:12:25;99380.81;;;17.59;87.94
35331;BME280;21441;52.190;20.910;2023-07-20T03:14:54;99379.63;;;17.55;88.83
35331;BME280;21441;52.190;20.910;2023-07-20T03:17:22;99373.22;;;17.44;89.02
35331;BME280;21441;52.190;20.910;2023-07-20T03:19:49;99376.59;;;17.51;88.89
35331;BME280;21441;52.190;20.910;2023-07-20T03:22:16;99371.78;;;17.53;88.26
35331;BME280;21441;52.190;20.910;2023-07-20T03:24:43;99379.38;;;17.68;87.54
35331;BME280;21441;52.190;20.910;2023-07-20T03:27:10;99392.38;;;17.71;87.16
35331;BME280;21441;52.190;20.910;2023-07-20T03:29:37;99394.25;;;17.70;87.48
35331;BME280;21441;52.190;20.910;2023-07-20T03:32:06;99397.00;;;17.59;89.76
35331;BME280;21441;52.190;20.910;2023-07-20T03:34:33;99399.28;;;17.67;89.61
35331;BME280;21441;52.190;20.910;2023-07-20T03:37:00;99392.38;;;17.71;88.99
35331;BME280;21441;52.190;20.910;2023-07-20T03:39:26;99411.75;;;17.68;90.52
35331;BME280;21441;52.190;20.910;2023-07-20T03:41:54;99423.09;;;17.70;90.77
35331;BME280;21441;52.190;20.910;2023-07-20T03:44:20;99436.00;;;17.68;92.10
35331;BME280;21441;52.190;20.910;2023-07-20T03:46:48;99444.44;;;17.71;91.74
35331;BME280;21441;52.190;20.910;2023-07-20T03:49:16;99451.13;;;17.69;93.08
35331;BME280;21441;52.190;20.910;2023-07-20T03:51:43;99451.16;;;17.57;95.68
35331;BME280;21441;52.190;20.910;2023-07-20T03:54:10;99457.72;;;17.61;97.87
35331;BME280;21441;52.190;20.910;2023-07-20T03:56:37;99437.66;;;17.33;100.00
35331;BME280;21441;52.190;20.910;2023-07-20T03:59:04;99429.47;;;17.28;100.00
35331;BME280;21441;52.190;20.910;2023-07-20T04:01:31;99432.25;;;17.45;100.00
35331;BME280;21441;52.190;20.910;2023-07-20T04:04:05;99444.69;;;17.23;100.00
35331;BME280;21441;52.190;20.910;2023-07-20T04:06:34;99438.84;;;17.14;100.00
35331;BME280;21441;52.190;20.910;2023-07-20T04:09:01;99444.66;;;16.99;100.00
35331;BME280;21441;52.190;20.910;2023-07-20T04:11:28;99459.91;;;16.94;100.00
35331;BME280;21441;52.190;20.910;2023-07-20T04:13:55;99487.28;;;16.90;100.00
35331;BME280;21441;52.190;20.910;2023-07-20T04:16:22;99495.47;;;16.54;100.00
35331;BME280;21441;52.190;20.910;2023-07-20T04:18:48;99497.94;;;16.25;100.00
35331;BME280;21441;52.190;20.910;2023-07-20T04:21:15;99496.81;;;16.14;100.00
35331;BME280;21441;52.190;20.910;2023-07-20T04:23:44;99502.94;;;16.03;100.00
35331;BME280;21441;52.190;20.910;2023-07-20T04:26:11;99499.94;;;16.11;100.00
35331;BME280;21441;52.190;20.910;2023-07-20T04:28:38;99503.16;;;16.01;100.00
35331;BME280;21441;52.190;20.910;2023-07-20T04:31:12;99506.25;;;16.05;100.00
35331;BME280;21441;52.190;20.910;2023-07-20T04:33:39;99501.22;;;16.08;100.00
35331;BME280;21441;52.190;20.910;2023-07-20T04:36:06;99511.66;;;15.98;100.00
35331;BME280;21441;52.190;20.910;2023-07-20T04:38:35;99497.78;;;16.01;100.00
35331;BME280;21441;52.190;20.910;2023-07-20T04:41:03;99510.47;;;16.13;100.00
35331;BME280;21441;52.190;20.910;2023-07-20T04:43:30;99515.50;;;16.27;100.00
35331;BME280;21441;52.190;20.910;2023-07-20T04:46:01;99515.63;;;16.33;100.00
35331;BME280;21441;52.190;20.910;2023-07-20T04:48:28;99510.88;;;16.46;100.00
35331;BME280;21441;52.190;20.910;2023-07-20T04:50:56;99521.47;;;16.60;100.00
35331;BME280;21441;52.190;20.910;2023-07-20T04:53:23;99517.66;;;16.67;100.00
35331;BME280;21441;52.190;20.910;2023-07-20T04:55:50;99512.63;;;16.71;100.00
35331;BME280;21441;52.190;20.910;2023-07-20T04:58:20;99509.84;;;16.78;100.00
35331;BME280;21441;52.190;20.910;2023-07-20T05:00:47;99513.56;;;16.95;100.00
35331;BME280;21441;52.190;20.910;2023-07-20T05:03:15;99502.69;;;17.02;100.00
35331;BME280;21441;52.190;20.910;2023-07-20T05:05:42;99518.38;;;17.17;100.00
35331;BME280;21441;52.190;20.910;2023-07-20T05:08:09;99526.84;;;17.08;100.00
35331;BME280;21441;52.190;20.910;2023-07-20T05:10:36;99540.63;;;17.00;100.00
35331;BME280;21441;52.190;20.910;2023-07-20T05:13:04;99528.75;;;16.89;100.00
35331;BME280;21441;52.190;20.910;2023-07-20T05:15:34;99544.22;;;16.94;100.00
35331;BME280;21441;52.190;20.910;2023-07-20T05:18:01;99535.25;;;17.00;100.00
35331;BME280;21441;52.190;20.910;2023-07-20T05:20:28;99526.94;;;17.14;100.00
35331;BME280;21441;52.190;20.910;2023-07-20T05:22:56;99538.69;;;17.19;100.00
35331;BME280;21441;52.190;20.910;2023-07-20T05:25:23;99547.22;;;17.16;100.00
35331;BME280;21441;52.190;20.910;2023-07-20T05:27:51;99523.22;;;17.26;100.00
35331;BME280;21441;52.190;20.910;2023-07-20T05:30:21;99512.66;;;17.25;100.00
35331;BME280;21441;52.190;20.910;2023-07-20T05:32:49;99517.84;;;17.38;100.00
35331;BME280;21441;52.190;20.910;2023-07-20T05:35:18;99510.22;;;17.47;100.00
35331;BME280;21441;52.190;20.910;2023-07-20T05:37:46;99519.25;;;17.41;100.00
35331;BME280;21441;52.190;20.910;2023-07-20T05:40:15;99506.94;;;17.33;100.00
35331;BME280;21441;52.190;20.910;2023-07-20T05:42:48;99519.34;;;17.22;100.00
35331;BME280;21441;52.190;20.910;2023-07-20T05:45:20;99529.88;;;17.12;100.00
35331;BME280;21441;52.190;20.910;2023-07-20T05:47:54;99519.47;;;17.27;100.00
35331;BME280;21441;52.190;20.910;2023-07-20T05:50:21;99506.34;;;17.31;100.00
35331;BME280;21441;52.190;20.910;2023-07-20T05:52:53;99521.56;;;17.25;100.00
35331;BME280;21441;52.190;20.910;2023-07-20T05:55:20;99515.72;;;17.28;100.00
35331;BME280;21441;52.190;20.910;2023-07-20T05:57:52;99496.28;;;17.38;100.00
35331;BME280;21441;52.190;20.910;2023-07-20T06:00:32;99497.78;;;17.10;100.00
35331;BME280;21441;52.190;20.910;2023-07-20T06:03:02;99528.94;;;17.06;100.00
35331;BME280;21441;52.190;20.910;2023-07-20T06:05:29;99492.97;;;17.13;100.00
35331;BME280;21441;52.190;20.910;2023-07-20T06:07:57;99490.50;;;17.11;100.00
35331;BME280;21441;52.190;20.910;2023-07-20T06:10:26;99514.66;;;17.18;100.00
35331;BME280;21441;52.190;20.910;2023-07-20T06:12:53;99504.81;;;17.23;100.00
35331;BME280;21441;52.190;20.910;2023-07-20T06:15:25;99478.00;;;17.28;100.00
35331;BME280;21441;52.190;20.910;2023-07-20T06:17:53;99511.03;;;17.36;100.00
35331;BME280;21441;52.190;20.910;2023-07-20T06:20:22;99491.34;;;17.47;100.00
35331;BME280;21441;52.190;20.910;2023-07-20T06:22:50;99477.75;;;17.65;100.00
35331;BME280;21441;52.190;20.910;2023-07-20T06:25:17;99475.63;;;17.67;100.00
35331;BME280;21441;52.190;20.910;2023-07-20T06:27:44;99481.84;;;17.68;100.00
35331;BME280;21441;52.190;20.910;2023-07-20T06:30:11;99483.84;;;17.84;100.00
35331;BME280;21441;52.190;20.910;2023-07-20T06:32:39;99486.19;;;17.92;100.00
35331;BME280;21441;52.190;20.910;2023-07-20T06:35:07;99496.97;;;17.92;100.00
35331;BME280;21441;52.190;20.910;2023-07-20T06:37:36;99475.63;;;18.03;100.00
35331;BME280;21441;52.190;20.910;2023-07-20T06:40:03;99472.06;;;18.14;100.00
35331;BME280;21441;52.190;20.910;2023-07-20T06:42:31;99483.94;;;18.01;100.00
35331;BME280;21441;52.190;20.910;2023-07-20T06:44:58;99469.25;;;18.09;100.00
35331;BME280;21441;52.190;20.910;2023-07-20T06:47:25;99485.22;;;18.10;100.00
35331;BME280;21441;52.190;20.910;2023-07-20T06:49:52;99485.34;;;18.04;100.00
35331;BME280;21441;52.190;20.910;2023-07-20T06:52:20;99474.75;;;18.14;100.00
35331;BME280;21441;52.190;20.910;2023-07-20T06:54:49;99488.88;;;17.92;100.00
35331;BME280;21441;52.190;20.910;2023-07-20T06:57:17;99478.31;;;17.79;100.00
35331;BME280;21441;52.190;20.910;2023-07-20T06:59:45;99476.88;;;18.00;100.00
35331;BME280;21441;52.190;20.910;2023-07-20T07:02:13;99467.47;;;18.14;100.00
35331;BME280;21441;52.190;20.910;2023-07-20T07:04:39;99486.19;;;17.92;100.00
35331;BME280;21441;52.190;20.910;2023-07-20T07:07:07;99476.66;;;18.02;100.00
35331;BME280;21441;52.190;20.910;2023-07-20T07:09:34;99480.75;;;18.04;100.00
35331;BME280;21441;52.190;20.910;2023-07-20T07:12:03;99491.94;;;17.96;100.00
35331;BME280;21441;52.190;20.910;2023-07-20T07:14:30;99474.56;;;17.80;100.00
35331;BME280;21441;52.190;20.910;2023-07-20T07:16:57;99511.66;;;17.61;100.00
35331;BME280;21441;52.190;20.910;2023-07-20T07:19:24;99505.06;;;17.69;100.00
35331;BME280;21441;52.190;20.910;2023-07-20T07:21:51;99493.00;;;17.83;100.00
35331;BME280;21441;52.190;20.910;2023-07-20T07:24:18;99513.84;;;17.76;100.00
35331;BME280;21441;52.190;20.910;2023-07-20T07:26:45;99522.19;;;17.74;100.00
35331;BME280;21441;52.190;20.910;2023-07-20T07:29:13;99502.28;;;17.87;100.00
35331;BME280;21441;52.190;20.910;2023-07-20T07:31:40;99492.16;;;17.83;100.00
35331;BME280;21441;52.190;20.910;2023-07-20T07:34:07;99498.47;;;18.00;100.00
35331;BME280;21441;52.190;20.910;2023-07-20T07:36:34;99502.59;;;17.91;100.00
35331;BME280;21441;52.190;20.910;2023-07-20T07:39:01;99529.22;;;17.76;100.00
35331;BME280;21441;52.190;20.910;2023-07-20T07:41:29;99510.81;;;17.84;100.00
35331;BME280;21441;52.190;20.910;2023-07-20T07:43:56;99516.06;;;17.67;100.00
35331;BME280;21441;52.190;20.910;2023-07-20T07:46:24;99518.78;;;17.67;100.00
35331;BME280;21441;52.190;20.910;2023-07-20T07:48:51;99529.69;;;17.72;100.00
35331;BME280;21441;52.190;20.910;2023-07-20T07:51:19;99540.72;;;17.71;100.00
35331;BME280;21441;52.190;20.910;2023-07-20T07:53:46;99532.72;;;17.76;100.00
35331;BME280;21441;52.190;20.910;2023-07-20T07:56:14;99535.91;;;17.85;100.00
35331;BME280;21441;52.190;20.910;2023-07-20T07:58:42;99554.00;;;17.84;100.00
35331;BME280;21441;52.190;20.910;2023-07-20T08:01:09;99564.53;;;17.74;100.00
35331;BME280;21441;52.190;20.910;2023-07-20T08:03:37;99550.31;;;17.67;100.00
35331;BME280;21441;52.190;20.910;2023-07-20T08:06:04;99552.44;;;17.65;100.00
35331;BME280;21441;52.190;20.910;2023-07-20T08:08:31;99554.53;;;17.63;100.00
35331;BME280;21441;52.190;20.910;2023-07-20T08:10:58;99562.53;;;17.69;100.00
35331;BME280;21441;52.190;20.910;2023-07-20T08:13:25;99533.91;;;17.80;100.00
35331;BME280;21441;52.190;20.910;2023-07-20T08:15:52;99554.91;;;17.66;100.00
35331;BME280;21441;52.190;20.910;2023-07-20T08:18:20;99552.78;;;17.68;100.00
35331;BME280;21441;52.190;20.910;2023-07-20T08:20:48;99570.97;;;17.73;100.00
35331;BME280;21441;52.190;20.910;2023-07-20T08:23:21;99538.03;;;17.94;100.00
35331;BME280;21441;52.190;20.910;2023-07-20T08:25:48;99545.75;;;18.14;100.00
35331;BME280;21441;52.190;20.910;2023-07-20T08:28:17;99550.59;;;18.01;100.00
35331;BME280;21441;52.190;20.910;2023-07-20T08:30:45;99585.78;;;17.82;100.00
35331;BME280;21441;52.190;20.910;2023-07-20T08:33:26;99571.13;;;17.90;100.00
35331;BME280;21441;52.190;20.910;2023-07-20T08:35:57;99571.09;;;18.02;100.00
35331;BME280;21441;52.190;20.910;2023-07-20T08:38:24;99561.97;;;18.03;100.00
35331;BME280;21441;52.190;20.910;2023-07-20T08:40:51;99591.66;;;17.91;100.00
35331;BME280;21441;52.190;20.910;2023-07-20T08:43:20;99569.81;;;18.04;100.00
35331;BME280;21441;52.190;20.910;2023-07-20T08:46:04;99577.47;;;18.07;100.00
35331;BME280;21441;52.190;20.910;2023-07-20T08:49:04;99601.38;;;18.04;100.00
35331;BME280;21441;52.190;20.910;2023-07-20T08:51:41;99586.13;;;18.09;100.00
35331;BME280;21441;52.190;20.910;2023-07-20T08:54:24;99584.34;;;18.27;100.00
35331;BME280;21441;52.190;20.910;2023-07-20T08:56:56;99574.19;;;18.46;100.00
35331;BME280;21441;52.190;20.910;2023-07-20T08:59:24;99579.59;;;18.58;100.00
35331;BME280;21441;52.190;20.910;2023-07-20T09:01:52;99577.13;;;18.56;100.00
35331;BME280;21441;52.190;20.910;2023-07-20T09:04:19;99591.63;;;18.79;100.00
35331;BME280;21441;52.190;20.910;2023-07-20T09:06:49;99591.53;;;18.62;100.00
35331;BME280;21441;52.190;20.910;2023-07-20T09:09:16;99589.84;;;18.84;100.00
35331;BME280;21441;52.190;20.910;2023-07-20T09:11:43;99604.19;;;18.85;100.00
35331;BME280;21441;52.190;20.910;2023-07-20T09:14:12;99601.91;;;18.93;100.00
35331;BME280;21441;52.190;20.910;2023-07-20T09:16:47;99593.72;;;18.88;100.00
35331;BME280;21441;52.190;20.910;2023-07-20T09:19:15;99593.56;;;19.24;100.00
35331;BME280;21441;52.190;20.910;2023-07-20T09:21:44;99589.28;;;19.45;100.00
35331;BME280;21441;52.190;20.910;2023-07-20T09:24:13;99590.53;;;20.05;100.00
35331;BME280;21441;52.190;20.910;2023-07-20T09:26:41;99587.03;;;20.48;98.27
35331;BME280;21441;52.190;20.910;2023-07-20T09:29:08;99588.72;;;20.54;100.00
35331;BME280;21441;52.190;20.910;2023-07-20T09:31:36;99605.50;;;20.95;84.62
35331;BME280;21441;52.190;20.910;2023-07-20T09:34:04;99607.34;;;21.44;82.66
35331;BME280;21441;52.190;20.910;2023-07-20T09:36:33;99608.34;;;21.65;77.30
35331;BME280;21441;52.190;20.910;2023-07-20T09:39:00;99594.69;;;21.55;78.97
35331;BME280;21441;52.190;20.910;2023-07-20T09:41:29;99599.25;;;21.87;76.15
35331;BME280;21441;52.190;20.910;2023-07-20T09:43:56;99607.25;;;21.66;76.98
35331;BME280;21441;52.190;20.910;2023-07-20T09:46:23;99606.28;;;21.45;74.73
35331;BME280;21441;52.190;20.910;2023-07-20T09:48:53;99606.19;;;21.40;76.84
35331;BME280;21441;52.190;20.910;2023-07-20T09:51:21;99607.59;;;21.15;77.02
35331;BME280;21441;52.190;20.910;2023-07-20T09:53:48;99610.50;;;21.09;77.10
35331;BME280;21441;52.190;20.910;2023-07-20T09:56:16;99616.28;;;20.68;80.45
35331;BME280;21441;52.190;20.910;2023-07-20T09:58:45;99613.53;;;20.63;81.03
35331;BME280;21441;52.190;20.910;2023-07-20T10:01:13;99611.59;;;20.41;84.01
35331;BME280;21441;52.190;20.910;2023-07-20T10:03:44;99606.28;;;19.11;90.92
35331;BME280;21441;52.190;20.910;2023-07-20T10:06:15;99611.34;;;18.91;97.37
35331;BME280;21441;52.190;20.910;2023-07-20T10:08:47;99604.75;;;18.87;97.02
35331;BME280;21441;52.190;20.910;2023-07-20T10:11:15;99610.19;;;18.63;100.00
35331;BME280;21441;52.190;20.910;2023-07-20T10:13:45;99589.22;;;18.94;100.00
35331;BME280;21441;52.190;20.910;2023-07-20T10:16:17;99606.59;;;18.58;98.61
35331;BME280;21441;52.190;20.910;2023-07-20T10:18:51;99609.81;;;18.19;100.00
35331;BME280;21441;52.190;20.910;2023-07-20T10:21:22;99594.28;;;18.50;100.00
35331;BME280;21441;52.190;20.910;2023-07-20T10:23:49;99594.59;;;18.65;100.00
35331;BME280;21441;52.190;20.910;2023-07-20T10:26:16;99596.47;;;18.65;100.00
35331;BME280;21441;52.190;20.910;2023-07-20T10:28:44;99595.44;;;18.94;100.00
35331;BME280;21441;52.190;20.910;2023-07-20T10:31:13;99600.59;;;18.96;99.75
35331;BME280;21441;52.190;20.910;2023-07-20T10:33:41;99591.25;;;20.00;92.16
35331;BME280;21441;52.190;20.910;2023-07-20T10:36:09;99592.66;;;21.13;80.24
35331;BME280;21441;52.190;20.910;2023-07-20T10:38:38;99591.81;;;22.09;73.54
35331;BME280;21441;52.190;20.910;2023-07-20T10:41:16;99580.69;;;22.79;68.01
35331;BME280;21441;52.190;20.910;2023-07-20T10:43:45;99587.63;;;21.91;65.79
35331;BME280;21441;52.190;20.910;2023-07-20T10:46:12;99581.56;;;21.79;65.78
35331;BME280;21441;52.190;20.910;2023-07-20T10:49:00;99583.31;;;22.48;66.54
35331;BME280;21441;52.190;20.910;2023-07-20T10:51:28;99581.22;;;22.13;67.77
35331;BME280;21441;52.190;20.910;2023-07-20T10:53:55;99579.75;;;22.37;68.02
35331;BME280;21441;52.190;20.910;2023-07-20T10:56:27;99573.75;;;23.03;64.52
35331;BME280;21441;52.190;20.910;2023-07-20T10:58:59;99577.66;;;22.60;59.54
35331;BME280;21441;52.190;20.910;2023-07-20T11:01:30;99576.19;;;23.10;59.71
35331;BME280;21441;52.190;20.910;2023-07-20T11:03:58;99575.50;;;22.67;61.16
35331;BME280;21441;52.190;20.910;2023-07-20T11:06:32;99569.53;;;22.70;63.00
35331;BME280;21441;52.190;20.910;2023-07-20T11:09:10;99564.16;;;22.91;61.14
35331;BME280;21441;52.190;20.910;2023-07-20T11:11:40;99572.41;;;23.21;61.49
35331;BME280;21441;52.190;20.910;2023-07-20T11:14:10;99570.09;;;22.09;63.50
35331;BME280;21441;52.190;20.910;2023-07-20T11:16:39;99572.31;;;21.75;65.37
35331;BME280;21441;52.190;20.910;2023-07-20T11:19:14;99574.78;;;21.81;65.22
35331;BME280;21441;52.190;20.910;2023-07-20T11:21:42;99582.50;;;21.62;66.38
35331;BME280;21441;52.190;20.910;2023-07-20T11:24:09;99572.25;;;22.12;64.88
35331;BME280;21441;52.190;20.910;2023-07-20T11:26:45;99571.88;;;22.46;64.65
35331;BME280;21441;52.190;20.910;2023-07-20T11:29:15;99571.88;;;22.36;64.79
35331;BME280;21441;52.190;20.910;2023-07-20T11:31:44;99566.19;;;22.42;64.37
35331;BME280;21441;52.190;20.910;2023-07-20T11:34:12;99567.22;;;21.19;67.70
35331;BME280;21441;52.190;20.910;2023-07-20T11:36:40;99554.56;;;22.67;62.55
35331;BME280;21441;52.190;20.910;2023-07-20T11:39:09;99559.00;;;22.21;63.13
35331;BME280;21441;52.190;20.910;2023-07-20T11:41:36;99551.81;;;22.47;61.90
35331;BME280;21441;52.190;20.910;2023-07-20T11:44:04;99559.66;;;22.38;63.43
35331;BME280;21441;52.190;20.910;2023-07-20T11:46:34;99553.78;;;22.72;61.22
35331;BME280;21441;52.190;20.910;2023-07-20T11:49:03;99557.34;;;22.73;60.33
35331;BME280;21441;52.190;20.910;2023-07-20T11:51:31;99545.19;;;23.21;60.64
35331;BME280;21441;52.190;20.910;2023-07-20T11:53:58;99534.00;;;23.79;57.05
35331;BME280;21441;52.190;20.910;2023-07-20T11:56:26;99541.13;;;24.45;54.92
35331;BME280;21441;52.190;20.910;2023-07-20T11:58:57;99538.13;;;24.57;54.47
35331;BME280;21441;52.190;20.910;2023-07-20T12:01:28;99535.91;;;25.72;51.94
35331;BME280;21441;52.190;20.910;2023-07-20T12:03:59;99541.53;;;25.81;50.41
35331;BME280;21441;52.190;20.910;2023-07-20T12:06:28;99543.81;;;24.66;52.06
35331;BME280;21441;52.190;20.910;2023-07-20T12:08:56;99550.38;;;24.60;52.41
35331;BME280;21441;52.190;20.910;2023-07-20T12:11:34;99542.66;;;25.11;52.02
35331;BME280;21441;52.190;20.910;2023-07-20T12:14:01;99540.59;;;24.54;52.65
35331;BME280;21441;52.190;20.910;2023-07-20T12:16:28;99537.97;;;25.57;50.72
35331;BME280;21441;52.190;20.910;2023-07-20T12:19:04;99533.22;;;26.21;49.31
35331;BME280;21441;52.190;20.910;2023-07-20T12:21:34;99532.19;;;25.29;50.69
35331;BME280;21441;52.190;20.910;2023-07-20T12:24:01;99533.84;;;24.36;52.67
35331;BME280;21441;52.190;20.910;2023-07-20T12:26:30;99532.28;;;24.14;52.81
35331;BME280;21441;52.190;20.910;2023-07-20T12:28:57;99536.69;;;23.95;54.23
35331;BME280;21441;52.190;20.910;2023-07-20T12:31:25;99541.09;;;23.80;53.98
35331;BME280;21441;52.190;20.910;2023-07-20T12:33:53;99546.63;;;24.40;52.89
35331;BME280;21441;52.190;20.910;2023-07-20T12:36:23;99540.41;;;24.29;52.90
35331;BME280;21441;52.190;20.910;2023-07-20T12:38:50;99544.22;;;24.23;53.98
35331;BME280;21441;52.190;20.910;2023-07-20T12:41:18;99542.72;;;23.20;56.64
35331;BME280;21441;52.190;20.910;2023-07-20T12:43:45;99546.84;;;21.81;63.77
35331;BME280;21441;52.190;20.910;2023-07-20T12:46:13;99545.59;;;20.97;68.35
35331;BME280;21441;52.190;20.910;2023-07-20T12:48:40;99542.75;;;21.14;68.41
35331;BME280;21441;52.190;20.910;2023-07-20T12:51:08;99537.06;;;21.42;67.53
35331;BME280;21441;52.190;20.910;2023-07-20T12:53:37;99532.41;;;21.06;70.04